sensor_id;sensor_type;location;lat;lon;timestamp;pressure;altitude;pressure_sealevel;temperature;humidity
62942;BME280;49042;47.318;19.874;2023-03-16T00:02:09;100361.47;;;1.84;75.04
62942;BME280;49042;47.318;19.874;2023-03-16T00:05:12;100366.22;;;1.78;75.21
62942;BME280;49042;47.318;19.874;2023-03-16T00:08:15;100367.41;;;1.69;74.88
62942;BME280;49042;47.318;19.874;2023-03-16T00:11:17;100366.59;;;1.70;75.66
62942;BME280;49042;47.318;19.874;2023-03-16T00:14:19;100373.41;;;1.70;75.64
62942;BME280;49042;47.318;19.874;2023-03-16T00:17:23;100375.22;;;1.71;75.34
62942;BME280;49042;47.318;19.874;2023-03-16T00:20:27;100376.69;;;1.67;75.72
62942;BME280;49042;47.318;19.874;2023-03-16T00:23:29;100368.78;;;1.64;76.17
62942;BME280;49042;47.318;19.874;2023-03-16T00:26:35;100371.94;;;1.60;76.19
62942;BME280;49042;47.318;19.874;2023-03-16T00:29:37;100370.38;;;1.62;76.63
62942;BME280;49042;47.318;19.874;2023-03-16T00:32:39;100376.25;;;1.47;77.16
62942;BME280;49042;47.318;19.874;2023-03-16T00:35:44;100375.75;;;1.39;78.26
62942;BME280;49042;47.318;19.874;2023-03-16T00:38:50;100380.56;;;1.35;78.14
62942;BME280;49042;47.318;19.874;2023-03-16T00:41:52;100384.31;;;1.26;78.35
62942;BME280;49042;47.318;19.874;2023-03-16T00:44:59;100375.28;;;1.20;79.00
62942;BME280;49042;47.318;19.874;2023-03-16T00:48:02;100390.03;;;1.22;79.19
62942;BME280;49042;47.318;19.874;2023-03-16T00:51:06;100384.56;;;1.17;79.01
62942;BME280;49042;47.318;19.874;2023-03-16T00:54:08;100392.63;;;1.10;79.36
62942;BME280;49042;47.318;19.874;2023-03-16T00:57:11;100395.88;;;1.08;79.56
62942;BME280;49042;47.318;19.874;2023-03-16T01:00:14;100395.78;;;1.06;79.77
62942;BME280;49042;47.318;19.874;2023-03-16T01:03:17;100392.78;;;1.00;79.41
62942;BME280;49042;47.318;19.874;2023-03-16T01:06:19;100402.16;;;0.99;80.13
62942;BME280;49042;47.318;19.874;2023-03-16T01:09:21;100404.50;;;0.96;79.77
62942;BME280;49042;47.318;19.874;2023-03-16T01:12:22;100404.22;;;0.91;80.11
62942;BME280;49042;47.318;19.874;2023-03-16T01:15:24;100412.69;;;0.90;79.85
62942;BME280;49042;47.318;19.874;2023-03-16T01:18:27;100415.47;;;0.93;79.57
62942;BME280;49042;47.318;19.874;2023-03-16T01:21:29;100412.12;;;0.94;79.27
62942;BME280;49042;47.318;19.874;2023-03-16T01:24:34;100414.56;;;0.93;79.52
62942;BME280;49042;47.318;19.874;2023-03-16T01:27:36;100413.47;;;0.89;79.19
62942;BME280;49042;47.318;19.874;2023-03-16T01:30:38;100418.31;;;0.84;79.21
62942;BME280;49042;47.318;19.874;2023-03-16T01:33:41;100419.84;;;0.82;79.81
62942;BME280;49042;47.318;19.874;2023-03-16T01:36:46;100424.44;;;0.74;79.93
62942;BME280;49042;47.318;19.874;2023-03-16T01:39:49;100422.56;;;0.72;80.13
62942;BME280;49042;47.318;19.874;2023-03-16T01:43:00;100414.56;;;0.67;80.13
62942;BME280;49042;47.318;19.874;2023-03-16T01:49:20;100421.69;;;0.59;80.76
62942;BME280;49042;47.318;19.874;2023-03-16T01:52:28;100423.25;;;0.57;80.44
62942;BME280;49042;47.318;19.874;2023-03-16T01:55:34;100418.22;;;0.59;80.19
62942;BME280;49042;47.318;19.874;2023-03-16T01:58:36;100426.97;;;0.49;80.79
62942;BME280;49042;47.318;19.874;2023-03-16T02:01:39;100422.72;;;0.49;80.60
62942;BME280;49042;47.318;19.874;2023-03-16T02:05:04;100429.97;;;0.43;80.96
62942;BME280;49042;47.318;19.874;2023-03-16T02:08:09;100427.37;;;0.43;81.46
62942;BME280;49042;47.318;19.874;2023-03-16T02:11:13;100432.97;;;0.37;81.59
62942;BME280;49042;47.318;19.874;2023-03-16T02:14:18;100433.66;;;0.35;81.85
62942;BME280;49042;47.318;19.874;2023-03-16T02:17:26;100436.00;;;0.31;81.84
62942;BME280;49042;47.318;19.874;2023-03-16T02:23:48;100436.87;;;0.20;82.54
62942;BME280;49042;47.318;19.874;2023-03-16T02:27:04;100440.00;;;0.16;83.02
62942;BME280;49042;47.318;19.874;2023-03-16T02:30:17;100443.13;;;0.12;83.23
62942;BME280;49042;47.318;19.874;2023-03-16T02:33:20;100445.09;;;0.04;83.84
62942;BME280;49042;47.318;19.874;2023-03-16T02:36:22;100447.00;;;-0.06;84.30
62942;BME280;49042;47.318;19.874;2023-03-16T02:39:24;100455.69;;;-0.16;84.71
62942;BME280;49042;47.318;19.874;2023-03-16T02:42:26;100456.12;;;-0.22;85.10
62942;BME280;49042;47.318;19.874;2023-03-16T02:45:53;100456.22;;;-0.20;84.95
62942;BME280;49042;47.318;19.874;2023-03-16T02:52:04;100457.34;;;-0.16;84.32
62942;BME280;49042;47.318;19.874;2023-03-16T02:55:07;100460.37;;;-0.22;84.79
62942;BME280;49042;47.318;19.874;2023-03-16T02:58:09;100474.63;;;-0.26;85.18
62942;BME280;49042;47.318;19.874;2023-03-16T03:01:12;100472.59;;;-0.30;85.29
62942;BME280;49042;47.318;19.874;2023-03-16T03:04:13;100473.25;;;-0.33;85.56
62942;BME280;49042;47.318;19.874;2023-03-16T03:07:15;100481.84;;;-0.32;85.65
62942;BME280;49042;47.318;19.874;2023-03-16T03:10:17;100477.25;;;-0.36;85.85
62942;BME280;49042;47.318;19.874;2023-03-16T03:13:20;100485.72;;;-0.37;86.01
62942;BME280;49042;47.318;19.874;2023-03-16T03:16:22;100483.47;;;-0.45;86.25
62942;BME280;49042;47.318;19.874;2023-03-16T03:19:23;100495.28;;;-0.47;86.67
62942;BME280;49042;47.318;19.874;2023-03-16T03:22:26;100492.72;;;-0.47;86.84
62942;BME280;49042;47.318;19.874;2023-03-16T03:25:28;100499.38;;;-0.49;87.27
62942;BME280;49042;47.318;19.874;2023-03-16T03:28:30;100496.56;;;-0.52;87.49
62942;BME280;49042;47.318;19.874;2023-03-16T03:31:34;100505.28;;;-0.50;87.25
62942;BME280;49042;47.318;19.874;2023-03-16T03:34:36;100509.81;;;-0.58;87.86
62942;BME280;49042;47.318;19.874;2023-03-16T03:37:39;100512.63;;;-0.55;87.54
62942;BME280;49042;47.318;19.874;2023-03-16T03:40:41;100524.28;;;-0.58;88.14
62942;BME280;49042;47.318;19.874;2023-03-16T03:43:43;100529.28;;;-0.60;87.46
62942;BME280;49042;47.318;19.874;2023-03-16T03:46:45;100534.25;;;-0.51;87.52
62942;BME280;49042;47.318;19.874;2023-03-16T03:49:47;100534.25;;;-0.51;86.84
62942;BME280;49042;47.318;19.874;2023-03-16T03:52:48;100541.81;;;-0.52;86.56
62942;BME280;49042;47.318;19.874;2023-03-16T03:55:50;100543.59;;;-0.51;86.17
62942;BME280;49042;47.318;19.874;2023-03-16T03:58:52;100547.16;;;-0.49;86.03
62942;BME280;49042;47.318;19.874;2023-03-16T04:01:53;100553.47;;;-0.56;86.38
62942;BME280;49042;47.318;19.874;2023-03-16T04:04:55;100560.47;;;-0.66;87.23
62942;BME280;49042;47.318;19.874;2023-03-16T04:07:57;100564.81;;;-0.65;87.79
62942;BME280;49042;47.318;19.874;2023-03-16T04:10:59;100560.97;;;-0.70;88.06
62942;BME280;49042;47.318;19.874;2023-03-16T04:14:01;100574.31;;;-0.74;88.36
62942;BME280;49042;47.318;19.874;2023-03-16T04:17:03;100573.97;;;-0.79;88.66
62942;BME280;49042;47.318;19.874;2023-03-16T04:20:06;100585.75;;;-0.81;89.19
62942;BME280;49042;47.318;19.874;2023-03-16T04:23:13;100586.16;;;-0.87;89.70
62942;BME280;49042;47.318;19.874;2023-03-16T04:26:17;100591.16;;;-0.88;89.86
62942;BME280;49042;47.318;19.874;2023-03-16T04:29:18;100593.59;;;-0.90;90.28
62942;BME280;49042;47.318;19.874;2023-03-16T04:32:20;100603.72;;;-0.91;90.09
62942;BME280;49042;47.318;19.874;2023-03-16T04:35:22;100602.19;;;-0.89;90.04
62942;BME280;49042;47.318;19.874;2023-03-16T04:38:24;100600.63;;;-0.87;89.50
62942;BME280;49042;47.318;19.874;2023-03-16T04:41:25;100599.47;;;-0.91;89.21
62942;BME280;49042;47.318;19.874;2023-03-16T04:44:27;100595.25;;;-0.90;89.14
62942;BME280;49042;47.318;19.874;2023-03-16T04:47:29;100601.38;;;-0.88;88.86
62942;BME280;49042;47.318;19.874;2023-03-16T04:50:34;100608.72;;;-0.93;88.85
62942;BME280;49042;47.318;19.874;2023-03-16T04:53:36;100610.09;;;-0.86;88.07
62942;BME280;49042;47.318;19.874;2023-03-16T04:56:37;100610.34;;;-0.83;87.84
62942;BME280;49042;47.318;19.874;2023-03-16T04:59:42;100619.69;;;-0.83;88.02
62942;BME280;49042;47.318;19.874;2023-03-16T05:02:45;100604.94;;;-0.76;87.85
62942;BME280;49042;47.318;19.874;2023-03-16T05:05:47;100614.81;;;-0.80;88.18
62942;BME280;49042;47.318;19.874;2023-03-16T05:08:50;100618.41;;;-0.78;87.98
62942;BME280;49042;47.318;19.874;2023-03-16T05:11:51;100615.06;;;-0.77;88.63
62942;BME280;49042;47.318;19.874;2023-03-16T05:14:53;100614.16;;;-0.78;88.90
62942;BME280;49042;47.318;19.874;2023-03-16T05:17:55;100624.31;;;-0.79;88.50
62942;BME280;49042;47.318;19.874;2023-03-16T05:20:57;100630.09;;;-0.82;88.54
62942;BME280;49042;47.318;19.874;2023-03-16T05:23:58;100633.25;;;-0.84;88.62
62942;BME280;49042;47.318;19.874;2023-03-16T05:27:00;100641.22;;;-0.81;88.71
62942;BME280;49042;47.318;19.874;2023-03-16T05:30:03;100653.25;;;-0.80;88.38
62942;BME280;49042;47.318;19.874;2023-03-16T05:33:05;100636.44;;;-0.77;88.68
62942;BME280;49042;47.318;19.874;2023-03-16T05:36:07;100649.50;;;-0.73;88.53
62942;BME280;49042;47.318;19.874;2023-03-16T05:39:09;100652.28;;;-0.60;87.64
62942;BME280;49042;47.318;19.874;2023-03-16T05:42:11;100651.31;;;-0.39;86.25
62942;BME280;49042;47.318;19.874;2023-03-16T05:45:14;100647.97;;;-0.16;85.04
62942;BME280;49042;47.318;19.874;2023-03-16T05:48:16;100649.50;;;-0.07;84.43
62942;BME280;49042;47.318;19.874;2023-03-16T05:51:18;100658.94;;;0.16;83.18
62942;BME280;49042;47.318;19.874;2023-03-16T05:54:20;100656.63;;;0.19;83.06
62942;BME280;49042;47.318;19.874;2023-03-16T05:57:21;100665.38;;;0.34;82.45
62942;BME280;49042;47.318;19.874;2023-03-16T06:00:24;100660.53;;;0.49;81.81
62942;BME280;49042;47.318;19.874;2023-03-16T06:03:26;100671.78;;;0.51;81.25
62942;BME280;49042;47.318;19.874;2023-03-16T06:06:28;100676.28;;;0.66;80.76
62942;BME280;49042;47.318;19.874;2023-03-16T06:09:30;100680.44;;;0.76;80.26
62942;BME280;49042;47.318;19.874;2023-03-16T06:12:32;100681.81;;;1.06;79.79
62942;BME280;49042;47.318;19.874;2023-03-16T06:15:34;100682.28;;;1.25;79.15
62942;BME280;49042;47.318;19.874;2023-03-16T06:18:36;100688.16;;;1.72;76.51
62942;BME280;49042;47.318;19.874;2023-03-16T06:21:38;100689.13;;;2.24;73.47
62942;BME280;49042;47.318;19.874;2023-03-16T06:24:40;100697.53;;;2.86;70.63
62942;BME280;49042;47.318;19.874;2023-03-16T06:27:42;100696.47;;;3.78;66.04
62942;BME280;49042;47.318;19.874;2023-03-16T06:30:43;100694.25;;;3.98;63.65
62942;BME280;49042;47.318;19.874;2023-03-16T06:33:45;100710.81;;;4.59;61.14
62942;BME280;49042;47.318;19.874;2023-03-16T06:36:47;100721.87;;;5.80;56.50
62942;BME280;49042;47.318;19.874;2023-03-16T06:39:48;100721.25;;;6.33;53.04
62942;BME280;49042;47.318;19.874;2023-03-16T06:42:50;100722.78;;;7.15;50.60
62942;BME280;49042;47.318;19.874;2023-03-16T06:45:52;100724.78;;;8.14;47.10
62942;BME280;49042;47.318;19.874;2023-03-16T06:48:54;100740.19;;;8.49;46.26
62942;BME280;49042;47.318;19.874;2023-03-16T06:51:56;100739.84;;;8.41;45.52
62942;BME280;49042;47.318;19.874;2023-03-16T06:54:59;100750.31;;;9.24;44.00
62942;BME280;49042;47.318;19.874;2023-03-16T06:58:00;100751.69;;;10.03;41.57
62942;BME280;49042;47.318;19.874;2023-03-16T07:01:03;100756.50;;;10.89;39.50
62942;BME280;49042;47.318;19.874;2023-03-16T07:04:05;100759.69;;;11.33;38.95
62942;BME280;49042;47.318;19.874;2023-03-16T07:07:07;100762.06;;;10.26;40.52
62942;BME280;49042;47.318;19.874;2023-03-16T07:10:15;100766.13;;;10.66;39.75
62942;BME280;49042;47.318;19.874;2023-03-16T07:13:17;100763.19;;;11.33;38.81
62942;BME280;49042;47.318;19.874;2023-03-16T07:16:19;100764.84;;;11.59;38.46
62942;BME280;49042;47.318;19.874;2023-03-16T07:19:22;100772.87;;;10.60;39.39
62942;BME280;49042;47.318;19.874;2023-03-16T07:22:23;100781.44;;;9.87;41.44
62942;BME280;49042;47.318;19.874;2023-03-16T07:25:25;100777.38;;;7.53;46.01
62942;BME280;49042;47.318;19.874;2023-03-16T07:28:27;100780.72;;;7.50;47.44
62942;BME280;49042;47.318;19.874;2023-03-16T07:31:30;100776.69;;;7.04;48.19
62942;BME280;49042;47.318;19.874;2023-03-16T07:34:32;100774.66;;;6.46;49.64
62942;BME280;49042;47.318;19.874;2023-03-16T07:37:34;100783.69;;;6.55;50.20
62942;BME280;49042;47.318;19.874;2023-03-16T07:40:40;100782.84;;;6.22;51.39
62942;BME280;49042;47.318;19.874;2023-03-16T07:43:42;100794.75;;;5.41;54.29
62942;BME280;49042;47.318;19.874;2023-03-16T07:46:47;100782.56;;;5.08;56.24
62942;BME280;49042;47.318;19.874;2023-03-16T07:49:48;100795.47;;;4.64;59.63
62942;BME280;49042;47.318;19.874;2023-03-16T07:52:50;100794.13;;;4.99;58.00
62942;BME280;49042;47.318;19.874;2023-03-16T07:55:52;100798.88;;;5.52;58.32
62942;BME280;49042;47.318;19.874;2023-03-16T07:58:54;100795.94;;;5.16;58.07
62942;BME280;49042;47.318;19.874;2023-03-16T08:01:56;100798.81;;;6.30;55.03
62942;BME280;49042;47.318;19.874;2023-03-16T08:04:57;100807.59;;;11.33;42.34
62942;BME280;49042;47.318;19.874;2023-03-16T08:07:59;100795.53;;;14.72;33.22
62942;BME280;49042;47.318;19.874;2023-03-16T08:11:02;100800.28;;;15.41;31.86
62942;BME280;49042;47.318;19.874;2023-03-16T08:14:04;100802.28;;;17.90;27.39
62942;BME280;49042;47.318;19.874;2023-03-16T08:17:06;100799.84;;;20.67;23.10
62942;BME280;49042;47.318;19.874;2023-03-16T08:20:08;100801.91;;;19.24;23.60
62942;BME280;49042;47.318;19.874;2023-03-16T08:23:13;100804.13;;;20.86;21.47
62942;BME280;49042;47.318;19.874;2023-03-16T08:26:18;100803.16;;;23.36;19.54
62942;BME280;49042;47.318;19.874;2023-03-16T08:29:20;100805.22;;;24.63;18.34
62942;BME280;49042;47.318;19.874;2023-03-16T08:32:22;100810.56;;;28.07;14.95
62942;BME280;49042;47.318;19.874;2023-03-16T08:35:23;100819.44;;;22.54;18.41
62942;BME280;49042;47.318;19.874;2023-03-16T08:38:25;100814.44;;;23.56;16.74
62942;BME280;49042;47.318;19.874;2023-03-16T08:41:27;100813.34;;;23.10;17.96
62942;BME280;49042;47.318;19.874;2023-03-16T08:44:31;100814.25;;;23.65;17.78
62942;BME280;49042;47.318;19.874;2023-03-16T08:47:33;100821.62;;;22.90;17.79
62942;BME280;49042;47.318;19.874;2023-03-16T08:50:35;100814.16;;;28.79;13.31
62942;BME280;49042;47.318;19.874;2023-03-16T08:53:36;100825.84;;;30.47;12.74
62942;BME280;49042;47.318;19.874;2023-03-16T08:56:38;100827.53;;;28.32;13.12
62942;BME280;49042;47.318;19.874;2023-03-16T08:59:40;100821.62;;;28.22;14.72
62942;BME280;49042;47.318;19.874;2023-03-16T09:02:42;100837.41;;;26.05;14.32
62942;BME280;49042;47.318;19.874;2023-03-16T09:05:44;100835.09;;;23.92;16.00
62942;BME280;49042;47.318;19.874;2023-03-16T09:08:46;100834.72;;;24.11;16.15
62942;BME280;49042;47.318;19.874;2023-03-16T09:11:48;100828.44;;;26.70;14.09
62942;BME280;49042;47.318;19.874;2023-03-16T09:14:50;100838.09;;;22.49;17.82
62942;BME280;49042;47.318;19.874;2023-03-16T09:17:51;100833.59;;;26.77;14.42
62942;BME280;49042;47.318;19.874;2023-03-16T09:20:59;100843.53;;;21.48;18.21
62942;BME280;49042;47.318;19.874;2023-03-16T09:24:01;100856.12;;;21.19;18.43
62942;BME280;49042;47.318;19.874;2023-03-16T09:27:04;100847.22;;;22.99;17.54
62942;BME280;49042;47.318;19.874;2023-03-16T09:30:06;100845.88;;;25.53;15.17
62942;BME280;49042;47.318;19.874;2023-03-16T09:33:08;100847.00;;;23.70;15.99
62942;BME280;49042;47.318;19.874;2023-03-16T09:36:11;100863.63;;;19.31;20.00
62942;BME280;49042;47.318;19.874;2023-03-16T09:39:13;100864.06;;;22.25;18.47
62942;BME280;49042;47.318;19.874;2023-03-16T09:45:23;100867.97;;;20.38;19.40
62942;BME280;49042;47.318;19.874;2023-03-16T09:48:29;100865.34;;;25.20;15.77
62942;BME280;49042;47.318;19.874;2023-03-16T09:55:21;100878.44;;;18.76;20.79
62942;BME280;49042;47.318;19.874;2023-03-16T09:58:28;100883.75;;;20.66;19.50
62942;BME280;49042;47.318;19.874;2023-03-16T10:05:08;100874.81;;;18.53;20.77
62942;BME280;49042;47.318;19.874;2023-03-16T10:08:36;100878.03;;;16.37;23.83
62942;BME280;49042;47.318;19.874;2023-03-16T10:11:48;100879.19;;;14.96;26.72
62942;BME280;49042;47.318;19.874;2023-03-16T10:15:05;100877.25;;;15.87;25.90
62942;BME280;49042;47.318;19.874;2023-03-16T10:18:15;100882.97;;;14.27;27.59
62942;BME280;49042;47.318;19.874;2023-03-16T10:21:19;100888.69;;;13.41;29.34
62942;BME280;49042;47.318;19.874;2023-03-16T10:24:28;100878.25;;;12.48;29.81
62942;BME280;49042;47.318;19.874;2023-03-16T10:27:36;100883.03;;;10.76;33.01
62942;BME280;49042;47.318;19.874;2023-03-16T10:30:38;100890.38;;;9.96;33.57
62942;BME280;49042;47.318;19.874;2023-03-16T10:33:43;100892.84;;;9.71;36.20
62942;BME280;49042;47.318;19.874;2023-03-16T10:36:45;100882.78;;;10.02;35.78
62942;BME280;49042;47.318;19.874;2023-03-16T10:39:48;100880.66;;;10.82;34.04
62942;BME280;49042;47.318;19.874;2023-03-16T10:42:50;100881.03;;;10.94;31.96
62942;BME280;49042;47.318;19.874;2023-03-16T10:45:57;100881.44;;;11.05;32.68
62942;BME280;49042;47.318;19.874;2023-03-16T10:49:00;100868.19;;;10.98;31.19
62942;BME280;49042;47.318;19.874;2023-03-16T10:55:22;100879.84;;;10.16;33.23
62942;BME280;49042;47.318;19.874;2023-03-16T10:58:27;100877.66;;;9.61;33.90
62942;BME280;49042;47.318;19.874;2023-03-16T11:01:31;100873.38;;;9.41;34.77
62942;BME280;49042;47.318;19.874;2023-03-16T11:04:32;100864.22;;;9.51;33.58
62942;BME280;49042;47.318;19.874;2023-03-16T11:07:35;100872.69;;;9.46;31.96
62942;BME280;49042;47.318;19.874;2023-03-16T11:10:39;100873.41;;;10.29;30.24
62942;BME280;49042;47.318;19.874;2023-03-16T11:13:58;100868.75;;;9.99;29.14
62942;BME280;49042;47.318;19.874;2023-03-16T11:17:11;100872.31;;;10.01;28.96
62942;BME280;49042;47.318;19.874;2023-03-16T11:20:24;100858.19;;;11.37;36.76
62942;BME280;49042;47.318;19.874;2023-03-16T11:23:32;100861.59;;;12.44;29.15
62942;BME280;49042;47.318;19.874;2023-03-16T11:26:37;100864.59;;;13.20;33.44
62942;BME280;49042;47.318;19.874;2023-03-16T11:32:50;100863.75;;;12.58;26.54
62942;BME280;49042;47.318;19.874;2023-03-16T11:42:37;100860.94;;;12.22;27.01
62942;BME280;49042;47.318;19.874;2023-03-16T11:45:51;100865.56;;;11.75;27.23
62942;BME280;49042;47.318;19.874;2023-03-16T11:56:24;100842.81;;;10.96;27.69
62942;BME280;49042;47.318;19.874;2023-03-16T12:06:20;100864.41;;;10.21;28.44
62942;BME280;49042;47.318;19.874;2023-03-16T12:16:14;100846.03;;;10.41;28.23
62942;BME280;49042;47.318;19.874;2023-03-16T12:19:44;100858.22;;;10.63;25.36
62942;BME280;49042;47.318;19.874;2023-03-16T12:22:49;100849.91;;;10.74;25.94
62942;BME280;49042;47.318;19.874;2023-03-16T12:25:53;100855.44;;;10.83;27.82
62942;BME280;49042;47.318;19.874;2023-03-16T12:29:02;100852.72;;;10.80;27.11
62942;BME280;49042;47.318;19.874;2023-03-16T12:32:47;100854.09;;;10.24;26.51
62942;BME280;49042;47.318;19.874;2023-03-16T12:39:46;100849.84;;;10.49;27.06
62942;BME280;49042;47.318;19.874;2023-03-16T12:46:35;100847.94;;;10.45;27.47
62942;BME280;49042;47.318;19.874;2023-03-16T12:49:39;100851.31;;;10.42;27.03
62942;BME280;49042;47.318;19.874;2023-03-16T12:52:44;100853.19;;;10.23;27.70
62942;BME280;49042;47.318;19.874;2023-03-16T12:55:47;100850.97;;;10.56;27.92
62942;BME280;49042;47.318;19.874;2023-03-16T12:58:49;100851.41;;;10.22;26.35
62942;BME280;49042;47.318;19.874;2023-03-16T13:01:56;100848.22;;;10.06;27.08
62942;BME280;49042;47.318;19.874;2023-03-16T13:05:00;100854.19;;;10.50;29.27
62942;BME280;49042;47.318;19.874;2023-03-16T13:08:15;100850.59;;;10.69;27.59
62942;BME280;49042;47.318;19.874;2023-03-16T13:11:17;100857.44;;;10.66;27.64
62942;BME280;49042;47.318;19.874;2023-03-16T13:14:40;100855.81;;;10.69;27.31
62942;BME280;49042;47.318;19.874;2023-03-16T13:17:42;100848.03;;;10.71;28.88
62942;BME280;49042;47.318;19.874;2023-03-16T13:20:59;100857.53;;;10.69;27.56
62942;BME280;49042;47.318;19.874;2023-03-16T13:27:22;100864.59;;;10.96;24.43
62942;BME280;49042;47.318;19.874;2023-03-16T13:30:29;100854.53;;;11.32;23.70
62942;BME280;49042;47.318;19.874;2023-03-16T13:33:33;100864.91;;;12.68;22.23
62942;BME280;49042;47.318;19.874;2023-03-16T13:36:38;100857.47;;;19.32;16.95
62942;BME280;49042;47.318;19.874;2023-03-16T13:39:54;100856.91;;;22.30;14.75
62942;BME280;49042;47.318;19.874;2023-03-16T13:42:57;100859.50;;;23.67;12.79
62942;BME280;49042;47.318;19.874;2023-03-16T13:45:59;100869.41;;;24.09;12.43
62942;BME280;49042;47.318;19.874;2023-03-16T13:49:01;100859.81;;;25.29;11.47
62942;BME280;49042;47.318;19.874;2023-03-16T13:52:03;100864.78;;;23.68;12.72
62942;BME280;49042;47.318;19.874;2023-03-16T13:55:16;100865.47;;;25.52;12.08
62942;BME280;49042;47.318;19.874;2023-03-16T13:58:23;100864.81;;;25.43;10.90
62942;BME280;49042;47.318;19.874;2023-03-16T14:01:29;100865.00;;;27.82;9.90
62942;BME280;49042;47.318;19.874;2023-03-16T14:04:31;100865.81;;;26.08;10.94
62942;BME280;49042;47.318;19.874;2023-03-16T14:07:37;100866.72;;;26.08;10.35
62942;BME280;49042;47.318;19.874;2023-03-16T14:10:41;100877.63;;;23.41;12.60
62942;BME280;49042;47.318;19.874;2023-03-16T14:13:53;100881.22;;;20.12;14.21
62942;BME280;49042;47.318;19.874;2023-03-16T14:17:07;100868.81;;;19.09;14.65
62942;BME280;49042;47.318;19.874;2023-03-16T14:20:18;100872.53;;;16.20;17.49
62942;BME280;49042;47.318;19.874;2023-03-16T14:23:27;100878.41;;;13.83;18.94
62942;BME280;49042;47.318;19.874;2023-03-16T14:26:39;100881.59;;;12.42;20.21
62942;BME280;49042;47.318;19.874;2023-03-16T14:29:42;100884.22;;;12.14;21.95
62942;BME280;49042;47.318;19.874;2023-03-16T14:33:05;100882.13;;;11.76;21.93
62942;BME280;49042;47.318;19.874;2023-03-16T14:36:17;100889.47;;;11.35;22.30
62942;BME280;49042;47.318;19.874;2023-03-16T14:39:20;100887.97;;;10.93;23.13
62942;BME280;49042;47.318;19.874;2023-03-16T14:42:29;100892.66;;;10.54;23.81
62942;BME280;49042;47.318;19.874;2023-03-16T14:45:33;100880.34;;;10.52;22.50
62942;BME280;49042;47.318;19.874;2023-03-16T14:48:36;100887.44;;;10.10;23.06
62942;BME280;49042;47.318;19.874;2023-03-16T14:51:39;100887.66;;;9.93;22.73
62942;BME280;49042;47.318;19.874;2023-03-16T14:54:41;100887.56;;;10.13;23.82
62942;BME280;49042;47.318;19.874;2023-03-16T14:57:43;100895.31;;;9.47;23.50
62942;BME280;49042;47.318;19.874;2023-03-16T15:00:45;100897.19;;;9.51;23.94
62942;BME280;49042;47.318;19.874;2023-03-16T15:03:53;100906.28;;;9.39;24.00
62942;BME280;49042;47.318;19.874;2023-03-16T15:06:56;100900.31;;;9.42;24.09
62942;BME280;49042;47.318;19.874;2023-03-16T15:10:22;100910.25;;;9.31;24.73
62942;BME280;49042;47.318;19.874;2023-03-16T15:13:25;100911.06;;;9.30;23.14
62942;BME280;49042;47.318;19.874;2023-03-16T15:16:53;100900.66;;;9.10;22.76
62942;BME280;49042;47.318;19.874;2023-03-16T15:19:55;100909.09;;;9.24;24.26
62942;BME280;49042;47.318;19.874;2023-03-16T15:22:58;100917.84;;;9.06;24.24
62942;BME280;49042;47.318;19.874;2023-03-16T15:26:00;100919.34;;;9.01;24.17
62942;BME280;49042;47.318;19.874;2023-03-16T15:29:05;100914.22;;;9.23;23.20
62942;BME280;49042;47.318;19.874;2023-03-16T15:32:11;100921.00;;;10.92;21.92
62942;BME280;49042;47.318;19.874;2023-03-16T15:35:15;100915.34;;;13.25;20.33
62942;BME280;49042;47.318;19.874;2023-03-16T15:38:21;100918.63;;;13.49;19.82
62942;BME280;49042;47.318;19.874;2023-03-16T15:41:23;100918.91;;;12.08;20.11
62942;BME280;49042;47.318;19.874;2023-03-16T15:44:32;100921.63;;;10.62;21.95
62942;BME280;49042;47.318;19.874;2023-03-16T15:47:34;100934.41;;;10.11;22.76
62942;BME280;49042;47.318;19.874;2023-03-16T15:50:37;100941.75;;;10.00;23.84
62942;BME280;49042;47.318;19.874;2023-03-16T15:53:45;100941.38;;;9.69;25.04
62942;BME280;49042;47.318;19.874;2023-03-16T15:56:50;100948.22;;;9.26;25.06
62942;BME280;49042;47.318;19.874;2023-03-16T15:59:55;100951.72;;;8.88;24.59
62942;BME280;49042;47.318;19.874;2023-03-16T16:02:57;100962.59;;;8.79;25.74
62942;BME280;49042;47.318;19.874;2023-03-16T16:05:59;100967.78;;;8.42;26.26
62942;BME280;49042;47.318;19.874;2023-03-16T16:09:01;100970.66;;;8.12;27.56
62942;BME280;49042;47.318;19.874;2023-03-16T16:12:03;100975.03;;;8.13;29.00
62942;BME280;49042;47.318;19.874;2023-03-16T16:21:30;100988.69;;;7.23;30.57
62942;BME280;49042;47.318;19.874;2023-03-16T16:24:34;100994.47;;;7.34;32.78
62942;BME280;49042;47.318;19.874;2023-03-16T16:27:35;100995.22;;;7.00;35.14
62942;BME280;49042;47.318;19.874;2023-03-16T16:30:37;100994.50;;;6.70;36.60
62942;BME280;49042;47.318;19.874;2023-03-16T16:33:40;101004.03;;;6.39;38.38
62942;BME280;49042;47.318;19.874;2023-03-16T16:36:43;101007.97;;;6.17;39.40
62942;BME280;49042;47.318;19.874;2023-03-16T16:39:44;101006.56;;;5.94;38.62
62942;BME280;49042;47.318;19.874;2023-03-16T16:42:47;101017.16;;;5.68;39.81
62942;BME280;49042;47.318;19.874;2023-03-16T16:45:50;101024.28;;;5.57;40.41
62942;BME280;49042;47.318;19.874;2023-03-16T16:48:57;101029.75;;;5.62;40.01
62942;BME280;49042;47.318;19.874;2023-03-16T16:51:59;101032.34;;;5.48;40.58
62942;BME280;49042;47.318;19.874;2023-03-16T16:55:02;101041.50;;;5.14;41.68
62942;BME280;49042;47.318;19.874;2023-03-16T16:58:04;101044.09;;;5.00;42.58
62942;BME280;49042;47.318;19.874;2023-03-16T17:01:26;101050.66;;;4.81;43.08
62942;BME280;49042;47.318;19.874;2023-03-16T17:04:29;101050.59;;;4.80;43.50
62942;BME280;49042;47.318;19.874;2023-03-16T17:07:32;101061.78;;;4.67;43.78